createdAt,value
2023-01-27T00:00:52.810Z,2.10
2023-01-27T00:03:20.856Z,2.50
2023-01-27T00:05:48.247Z,2.33
2023-01-27T00:08:15.959Z,2.20
2023-01-27T00:10:43.161Z,2.55
2023-01-27T00:13:31.964Z,2.30
2023-01-27T00:15:58.952Z,2.53
2023-01-27T00:18:25.863Z,2.83
2023-01-27T00:21:11.832Z,2.33
2023-01-27T00:23:57.187Z,2.15
2023-01-27T00:26:24.031Z,2.35
2023-01-27T00:28:51.033Z,2.50
2023-01-27T00:31:38.083Z,2.20
2023-01-27T00:34:11.747Z,2.42
2023-01-27T00:36:41.974Z,2.70
2023-01-27T00:39:10.797Z,2.60
2023-01-27T00:41:38.000Z,2.60
2023-01-27T00:44:05.772Z,2.60
2023-01-27T00:46:33.948Z,2.60
2023-01-27T00:49:02.325Z,2.60
2023-01-27T00:51:30.423Z,2.45
2023-01-27T00:53:59.195Z,2.65
2023-01-27T00:56:27.069Z,2.50
2023-01-27T00:58:55.585Z,2.65
2023-01-27T01:01:22.524Z,2.80
2023-01-27T01:03:49.438Z,2.40
2023-01-27T01:06:17.680Z,2.40
2023-01-27T01:08:45.064Z,2.85
2023-01-27T01:11:15.627Z,2.85
2023-01-27T01:13:43.767Z,2.50
2023-01-27T01:16:22.653Z,2.80
2023-01-27T01:18:49.904Z,2.80
2023-01-27T01:21:17.254Z,2.80
2023-01-27T01:23:45.712Z,3.60
2023-01-27T01:26:14.083Z,3.75
2023-01-27T01:28:40.907Z,3.38
2023-01-27T01:31:19.302Z,3.78
2023-01-27T01:33:47.229Z,3.50
2023-01-27T01:36:19.444Z,4.03
2023-01-27T01:38:46.681Z,3.70
2023-01-27T01:41:20.130Z,4.65
2023-01-27T01:43:48.011Z,3.97
2023-01-27T01:46:15.156Z,3.95
2023-01-27T01:48:54.491Z,4.18
2023-01-27T01:51:31.548Z,4.13
2023-01-27T01:54:11.463Z,4.50
2023-01-27T01:57:04.994Z,4.32
2023-01-27T01:59:50.516Z,4.30
2023-01-27T02:02:22.004Z,4.55
2023-01-27T02:05:12.668Z,5.13
2023-01-27T02:07:42.787Z,4.45
2023-01-27T02:10:11.845Z,5.38
2023-01-27T02:12:39.444Z,5.10
2023-01-27T02:15:08.241Z,4.93
2023-01-27T02:17:35.700Z,4.78
2023-01-27T02:20:28.333Z,4.65
2023-01-27T02:23:32.994Z,4.70
2023-01-27T02:26:09.711Z,4.57
2023-01-27T02:28:36.884Z,5.15
2023-01-27T02:31:04.103Z,5.03
2023-01-27T02:33:31.459Z,5.05
2023-01-27T02:36:09.207Z,5.18
2023-01-27T02:38:50.303Z,5.00
2023-01-27T02:41:40.605Z,4.60
2023-01-27T02:44:09.291Z,4.90
2023-01-27T02:46:36.544Z,4.90
2023-01-27T02:49:03.862Z,5.07
2023-01-27T02:51:31.076Z,5.00
2023-01-27T02:53:59.431Z,5.25
2023-01-27T02:56:26.495Z,5.18
2023-01-27T02:58:56.617Z,5.07
2023-01-27T03:01:32.465Z,5.40
2023-01-27T03:04:00.170Z,5.50
2023-01-27T03:06:27.064Z,5.60
2023-01-27T03:08:53.997Z,5.90
2023-01-27T03:11:39.895Z,6.15
2023-01-27T03:14:08.812Z,6.05
2023-01-27T03:16:54.490Z,6.13
2023-01-27T03:19:21.570Z,6.43
2023-01-27T03:21:51.133Z,7.22
2023-01-27T03:24:18.900Z,7.47
2023-01-27T03:26:45.920Z,7.18
2023-01-27T03:29:33.299Z,7.10
2023-01-27T03:32:01.415Z,6.65
2023-01-27T03:34:32.015Z,7.57
2023-01-27T03:37:25.299Z,7.03
2023-01-27T03:40:10.707Z,7.05
2023-01-27T03:42:56.476Z,6.95
2023-01-27T03:45:41.935Z,7.10
2023-01-27T03:48:08.751Z,6.75
2023-01-27T03:50:38.330Z,7.20
2023-01-27T03:53:05.964Z,6.85
2023-01-27T03:55:35.343Z,6.85
2023-01-27T03:58:18.460Z,7.55
2023-01-27T04:00:56.677Z,6.55
2023-01-27T04:03:46.358Z,6.35
2023-01-27T04:06:37.432Z,6.38
2023-01-27T04:09:06.063Z,6.75
2023-01-27T04:11:52.314Z,6.30
2023-01-27T04:14:19.311Z,6.57
2023-01-27T04:16:46.282Z,6.00
2023-01-27T04:19:13.427Z,6.10
2023-01-27T04:21:40.652Z,5.93
2023-01-27T04:24:08.854Z,5.97
2023-01-27T04:26:35.906Z,5.53
2023-01-27T04:29:03.502Z,5.60
2023-01-27T04:31:32.567Z,5.22
2023-01-27T04:33:59.453Z,5.90
2023-01-27T04:36:26.235Z,5.50
2023-01-27T04:38:53.816Z,5.35
2023-01-27T04:41:20.550Z,5.30
2023-01-27T04:43:48.145Z,5.20
2023-01-27T04:46:15.041Z,4.93
2023-01-27T04:48:41.816Z,4.97
2023-01-27T04:51:08.605Z,4.63
2023-01-27T04:53:35.391Z,5.05
2023-01-27T04:56:05.141Z,4.47
2023-01-27T04:58:32.234Z,4.18
2023-01-27T05:00:59.225Z,4.70
2023-01-27T05:03:26.020Z,4.00
2023-01-27T05:05:52.785Z,4.22
2023-01-27T05:08:19.647Z,4.35
2023-01-27T05:10:46.839Z,4.20
2023-01-27T05:13:13.792Z,4.00
2023-01-27T05:15:40.744Z,3.90
2023-01-27T05:18:07.519Z,3.70
2023-01-27T05:20:34.281Z,3.85
2023-01-27T05:23:19.849Z,3.63
2023-01-27T05:25:46.774Z,4.00
2023-01-27T05:28:13.602Z,3.72
2023-01-27T05:30:40.504Z,3.60
2023-01-27T05:33:08.371Z,3.50
2023-01-27T05:35:35.447Z,3.33
2023-01-27T05:38:02.337Z,3.60
2023-01-27T05:40:29.635Z,3.72
2023-01-27T05:42:56.402Z,3.20
2023-01-27T05:45:23.272Z,3.53
2023-01-27T05:47:51.549Z,3.67
2023-01-27T05:50:19.072Z,3.60
2023-01-27T05:52:46.199Z,3.30
2023-01-27T05:55:13.367Z,3.72
2023-01-27T05:57:40.315Z,3.58
2023-01-27T06:00:07.818Z,3.50
2023-01-27T06:02:34.981Z,3.47
2023-01-27T06:05:01.796Z,3.38
2023-01-27T06:07:28.604Z,3.35
2023-01-27T06:09:55.398Z,3.55
2023-01-27T06:12:22.137Z,3.45
2023-01-27T06:14:48.989Z,3.58
2023-01-27T06:17:15.706Z,3.30
2023-01-27T06:19:42.490Z,3.63
2023-01-27T06:22:09.401Z,3.50
2023-01-27T06:24:36.147Z,3.20
2023-01-27T06:27:03.077Z,3.70
2023-01-27T06:29:29.832Z,3.40
2023-01-27T06:31:57.821Z,3.42
2023-01-27T06:34:24.666Z,3.33
2023-01-27T06:36:53.851Z,3.30
2023-01-27T06:39:20.699Z,3.55
2023-01-27T06:41:49.816Z,3.10
2023-01-27T06:44:16.671Z,3.53
2023-01-27T06:46:43.654Z,3.38
2023-01-27T06:49:10.490Z,3.15
2023-01-27T06:51:37.214Z,3.17
2023-01-27T06:54:04.791Z,3.40
2023-01-27T06:56:31.526Z,3.15
2023-01-27T06:58:58.266Z,3.50
2023-01-27T07:01:24.978Z,3.30
2023-01-27T07:03:51.764Z,3.00
2023-01-27T07:06:19.057Z,3.00
2023-01-27T07:08:47.297Z,3.00
2023-01-27T07:11:14.663Z,3.00
2023-01-27T07:13:41.465Z,3.13
2023-01-27T07:16:08.366Z,3.13
2023-01-27T07:18:35.223Z,3.17
2023-01-27T07:21:05.085Z,2.80
2023-01-27T07:23:32.258Z,2.88
2023-01-27T07:26:04.309Z,3.00
2023-01-27T07:28:32.576Z,3.00
2023-01-27T07:31:02.935Z,3.40
2023-01-27T07:33:29.863Z,2.85
2023-01-27T07:35:56.723Z,3.13
2023-01-27T07:38:23.618Z,3.35
2023-01-27T07:40:50.530Z,3.20
2023-01-27T07:43:17.267Z,3.55
2023-01-27T07:45:48.950Z,3.47
2023-01-27T07:48:16.538Z,3.08
2023-01-27T07:50:43.420Z,3.25
2023-01-27T07:53:11.735Z,3.67
2023-01-27T07:55:38.593Z,3.80
2023-01-27T07:58:06.056Z,3.70
2023-01-27T08:00:33.135Z,3.45
2023-01-27T08:03:00.983Z,3.10
2023-01-27T08:05:29.082Z,3.72
2023-01-27T08:07:58.621Z,2.80
2023-01-27T08:10:25.776Z,3.40
2023-01-27T08:12:52.771Z,3.53
2023-01-27T08:15:19.708Z,2.90
2023-01-27T08:17:57.109Z,2.92
2023-01-27T08:20:25.357Z,3.05
2023-01-27T08:22:52.219Z,2.60
2023-01-27T08:25:19.423Z,2.60
2023-01-27T08:27:50.569Z,2.53
2023-01-27T08:30:19.012Z,2.85
2023-01-27T08:32:45.865Z,2.70
2023-01-27T08:35:12.653Z,2.50
2023-01-27T08:37:39.485Z,2.53
2023-01-27T08:40:06.730Z,2.60
2023-01-27T08:42:33.466Z,2.78
2023-01-27T08:45:00.573Z,2.78
2023-01-27T08:47:27.357Z,2.67
2023-01-27T08:49:54.363Z,2.47
2023-01-27T08:52:22.996Z,2.53
2023-01-27T08:54:49.783Z,2.60
2023-01-27T08:57:16.542Z,2.50
2023-01-27T08:59:43.373Z,2.60
2023-01-27T09:02:13.419Z,2.90
2023-01-27T09:04:43.824Z,2.60
2023-01-27T09:07:11.066Z,2.70
2023-01-27T09:09:37.978Z,2.38
2023-01-27T09:12:04.861Z,2.40
2023-01-27T09:14:31.689Z,2.38
2023-01-27T09:16:58.458Z,2.27
2023-01-27T09:19:25.598Z,2.38
2023-01-27T09:21:52.491Z,2.20
2023-01-27T09:24:20.578Z,2.20
2023-01-27T09:26:47.508Z,2.25
2023-01-27T09:29:14.338Z,2.43
2023-01-27T09:31:41.228Z,2.33
2023-01-27T09:34:07.997Z,2.20
2023-01-27T09:36:42.900Z,2.00
2023-01-27T09:39:10.207Z,2.00
2023-01-27T09:42:01.737Z,2.00
2023-01-27T09:45:06.577Z,2.17
2023-01-27T09:47:53.607Z,2.08
2023-01-27T09:50:35.365Z,2.17
2023-01-27T09:53:18.355Z,2.00
2023-01-27T09:56:01.635Z,1.80
2023-01-27T09:58:40.497Z,1.90
2023-01-27T10:01:30.189Z,2.28
2023-01-27T10:04:13.297Z,2.15
2023-01-27T10:07:18.427Z,2.10
2023-01-27T10:09:53.974Z,2.20
2023-01-27T10:12:23.543Z,2.20
2023-01-27T10:15:37.234Z,2.20
2023-01-27T10:18:13.700Z,2.40
2023-01-27T10:21:12.663Z,2.28
2023-01-27T10:24:02.616Z,2.33
2023-01-27T10:26:49.434Z,2.22
2023-01-27T10:29:37.541Z,2.33
2023-01-27T10:32:13.095Z,2.60
2023-01-27T10:35:12.148Z,2.50
2023-01-27T10:38:08.090Z,2.40
2023-01-27T10:40:45.655Z,2.50
2023-01-27T10:43:18.166Z,2.60
2023-01-27T10:46:03.911Z,2.83
2023-01-27T10:48:45.981Z,2.90
2023-01-27T10:51:20.163Z,2.63
2023-01-27T10:53:49.893Z,2.70
2023-01-27T10:56:27.843Z,2.80
2023-01-27T10:59:09.604Z,2.80
2023-01-27T11:02:00.743Z,2.80
2023-01-27T11:04:43.786Z,3.00
2023-01-27T11:07:32.435Z,2.80
2023-01-27T11:10:05.946Z,2.97
2023-01-27T11:12:36.731Z,2.85
2023-01-27T11:15:23.662Z,3.00
2023-01-27T11:18:18.073Z,3.00
2023-01-27T11:20:51.102Z,2.90
2023-01-27T11:23:27.552Z,2.90
2023-01-27T11:26:44.594Z,3.00
2023-01-27T11:29:38.982Z,3.10
2023-01-27T11:32:08.521Z,2.90
2023-01-27T11:34:41.207Z,3.22
2023-01-27T11:37:25.495Z,2.80
2023-01-27T11:39:52.373Z,2.92
2023-01-27T11:42:19.427Z,2.60
2023-01-27T11:44:46.415Z,3.10
2023-01-27T11:47:30.498Z,3.10
2023-01-27T11:49:58.511Z,3.08
2023-01-27T11:52:27.142Z,2.90
2023-01-27T11:55:18.085Z,3.17
2023-01-27T11:57:55.258Z,3.60
2023-01-27T12:00:24.537Z,3.35
2023-01-27T12:03:06.562Z,3.40
2023-01-27T12:05:42.607Z,3.28
2023-01-27T12:08:09.654Z,3.40
2023-01-27T12:10:42.198Z,3.30
2023-01-27T12:13:20.533Z,3.50
2023-01-27T12:15:53.287Z,3.25
2023-01-27T12:18:20.520Z,3.25
2023-01-27T12:20:57.173Z,3.50
2023-01-27T12:23:37.200Z,3.27
2023-01-27T12:26:07.306Z,3.25
2023-01-27T12:28:38.727Z,3.00
2023-01-27T12:31:13.219Z,3.10
2023-01-27T12:33:51.086Z,2.95
2023-01-27T12:36:24.523Z,3.03
2023-01-27T12:38:53.529Z,3.35
2023-01-27T12:41:27.112Z,3.03
2023-01-27T12:44:22.378Z,3.10
2023-01-27T12:47:02.454Z,3.08
2023-01-27T12:49:42.275Z,2.90
2023-01-27T12:52:18.695Z,3.15
2023-01-27T12:54:45.919Z,2.83
2023-01-27T12:57:17.969Z,3.05
2023-01-27T12:59:54.879Z,2.90
2023-01-27T13:02:32.939Z,3.00
2023-01-27T13:05:04.775Z,2.67
2023-01-27T13:07:52.698Z,3.13
2023-01-27T13:10:24.461Z,2.35
2023-01-27T13:12:58.793Z,2.50
2023-01-27T13:15:28.829Z,2.50
2023-01-27T13:17:57.436Z,2.35
2023-01-27T13:20:30.199Z,2.10
2023-01-27T13:23:07.985Z,2.20
2023-01-27T13:25:45.129Z,2.38
2023-01-27T13:28:18.745Z,2.40
2023-01-27T13:30:52.564Z,2.40
2023-01-27T13:34:17.205Z,2.60
2023-01-27T13:36:45.760Z,2.90
2023-01-27T13:39:23.690Z,2.70
2023-01-27T13:42:06.010Z,2.80
2023-01-27T13:44:40.503Z,2.60
2023-01-27T13:47:36.081Z,2.90
2023-01-27T13:50:16.435Z,2.67
2023-01-27T13:52:45.169Z,2.65
2023-01-27T13:55:14.025Z,2.77
2023-01-27T13:57:51.477Z,2.90
2023-01-27T14:00:33.621Z,2.65
2023-01-27T14:03:28.257Z,3.13
2023-01-27T14:06:36.547Z,2.85
2023-01-27T14:09:24.241Z,2.60
2023-01-27T14:12:00.490Z,2.80
2023-01-27T14:14:33.060Z,13.85
2023-01-27T14:17:26.659Z,6.13
2023-01-27T14:20:12.639Z,3.47
2023-01-27T14:22:55.188Z,2.80
2023-01-27T14:25:47.179Z,2.80
2023-01-27T14:28:25.313Z,2.95
2023-01-27T14:30:58.648Z,2.92
2023-01-27T14:33:37.638Z,3.20
2023-01-27T14:36:28.828Z,3.50
2023-01-27T14:39:20.683Z,3.58
2023-01-27T14:45:07.402Z,3.10
2023-01-27T14:47:45.758Z,3.50
2023-01-27T14:50:30.351Z,3.00
2023-01-27T14:53:31.139Z,3.45
2023-01-27T14:56:06.473Z,2.70
2023-01-27T14:58:39.303Z,2.97
2023-01-27T15:01:24.791Z,2.60
2023-01-27T15:04:12.204Z,3.00
2023-01-27T15:06:58.681Z,2.70
2023-01-27T15:09:44.806Z,2.90
2023-01-27T15:12:44.173Z,3.30
2023-01-27T15:15:37.510Z,3.20
2023-01-27T15:18:37.585Z,3.10
2023-01-27T15:21:29.591Z,3.10
2023-01-27T15:24:16.183Z,2.97
2023-01-27T15:26:43.911Z,3.15
2023-01-27T15:29:15.219Z,3.00
2023-01-27T15:31:43.080Z,2.80
2023-01-27T15:34:22.853Z,2.83
2023-01-27T15:37:26.335Z,3.20
2023-01-27T15:40:05.248Z,3.20
2023-01-27T15:43:05.149Z,3.17
2023-01-27T15:45:42.355Z,3.10
2023-01-27T15:48:20.299Z,3.10
2023-01-27T15:51:06.014Z,3.10
2023-01-27T15:53:40.143Z,3.53
2023-01-27T15:56:08.004Z,2.90
2023-01-27T15:58:43.540Z,3.30
2023-01-27T16:01:23.311Z,3.55
2023-01-27T16:03:52.982Z,3.00
2023-01-27T16:06:26.154Z,3.20
2023-01-27T16:09:01.019Z,3.28
2023-01-27T16:11:30.892Z,3.37
2023-01-27T16:14:13.066Z,3.20
2023-01-27T16:16:39.883Z,3.35
2023-01-27T16:19:10.877Z,3.40
2023-01-27T16:22:00.668Z,3.33
2023-01-27T16:24:56.211Z,3.45
2023-01-27T16:27:46.743Z,3.33
2023-01-27T16:30:20.962Z,3.90
2023-01-27T16:32:58.258Z,3.78
2023-01-27T16:35:25.870Z,3.30
2023-01-27T16:38:01.651Z,3.72
2023-01-27T16:40:30.560Z,4.22
2023-01-27T16:43:06.540Z,4.20
2023-01-27T16:45:43.855Z,4.88
2023-01-27T16:48:32.026Z,4.43
2023-01-27T16:51:13.234Z,4.30
2023-01-27T16:53:48.080Z,4.80
2023-01-27T16:56:24.019Z,4.70
2023-01-27T16:58:52.068Z,4.07
2023-01-27T17:01:39.829Z,5.30
2023-01-27T17:04:19.551Z,4.50
2023-01-27T17:06:47.675Z,4.22
2023-01-27T17:09:26.785Z,4.78
2023-01-27T17:11:54.099Z,4.30
2023-01-27T17:14:34.899Z,4.78
2023-01-27T17:17:15.483Z,4.93
2023-01-27T17:19:48.430Z,4.90
2023-01-27T17:22:41.154Z,5.10
2023-01-27T17:25:25.123Z,5.22
2023-01-27T17:27:52.431Z,4.95
2023-01-27T17:30:23.999Z,5.10
2023-01-27T17:32:54.591Z,4.40
2023-01-27T17:35:28.885Z,4.50
2023-01-27T17:38:15.481Z,4.03
2023-01-27T17:40:47.997Z,3.90
2023-01-27T17:43:30.847Z,4.20
2023-01-27T17:46:06.794Z,4.28
2023-01-27T17:48:35.770Z,4.22
2023-01-27T17:51:02.608Z,4.07
2023-01-27T17:53:29.674Z,3.95
2023-01-27T17:55:56.871Z,3.63
2023-01-27T17:58:26.610Z,3.65
2023-01-27T18:00:54.863Z,4.28
2023-01-27T18:03:24.439Z,4.30
2023-01-27T18:05:54.229Z,5.00
2023-01-27T18:08:23.494Z,5.43
2023-01-27T18:10:51.440Z,4.93
2023-01-27T18:13:18.222Z,6.18
2023-01-27T18:15:59.416Z,5.38
2023-01-27T18:18:29.073Z,4.30
2023-01-27T18:21:09.445Z,4.85
2023-01-27T18:23:38.088Z,4.90
2023-01-27T18:26:16.339Z,6.32
2023-01-27T18:28:45.441Z,5.25
2023-01-27T18:31:20.346Z,6.90
2023-01-27T18:33:56.201Z,6.22
2023-01-27T18:36:25.024Z,4.88
2023-01-27T18:38:52.132Z,4.50
2023-01-27T18:41:28.957Z,4.82
2023-01-27T18:43:56.373Z,5.50
2023-01-27T18:46:25.146Z,5.18
2023-01-27T18:48:52.419Z,5.30
2023-01-27T18:51:19.309Z,6.07
2023-01-27T18:53:46.125Z,4.72
2023-01-27T18:56:14.038Z,4.45
2023-01-27T18:58:40.839Z,4.35
2023-01-27T19:01:16.123Z,4.45
2023-01-27T19:03:42.939Z,4.40
2023-01-27T19:06:16.359Z,4.63
2023-01-27T19:08:43.427Z,4.88
2023-01-27T19:11:14.912Z,4.70
2023-01-27T19:13:45.937Z,5.07
2023-01-27T19:16:15.829Z,4.90
2023-01-27T19:18:43.194Z,4.65
2023-01-27T19:21:13.443Z,4.07
2023-01-27T19:23:44.407Z,4.70
2023-01-27T19:26:17.375Z,4.85
2023-01-27T19:28:45.756Z,5.05
2023-01-27T19:31:12.672Z,4.50
2023-01-27T19:33:43.834Z,4.20
2023-01-27T19:36:29.763Z,4.60
2023-01-27T19:39:11.171Z,4.80
2023-01-27T19:41:38.096Z,4.80
2023-01-27T19:44:05.129Z,4.75
2023-01-27T19:46:33.871Z,4.57
2023-01-27T19:49:00.806Z,4.50
2023-01-27T19:51:27.631Z,4.57
2023-01-27T19:53:54.670Z,5.05
2023-01-27T19:56:23.524Z,4.60
2023-01-27T19:58:52.673Z,4.20
2023-01-27T20:01:21.615Z,4.60
2023-01-27T20:03:49.352Z,4.72
2023-01-27T20:06:21.815Z,4.43
2023-01-27T20:08:54.421Z,4.68
2023-01-27T20:11:36.094Z,4.45
2023-01-27T20:14:05.991Z,5.20
2023-01-27T20:16:33.805Z,5.20
2023-01-27T20:19:00.786Z,5.20
2023-01-27T20:21:28.618Z,4.82
2023-01-27T20:23:55.458Z,5.30
2023-01-27T20:26:22.608Z,5.28
2023-01-27T20:28:50.068Z,5.50
2023-01-27T20:31:19.488Z,5.35
2023-01-27T20:33:50.225Z,5.75
2023-01-27T20:36:21.022Z,5.40
2023-01-27T20:38:48.380Z,5.18
2023-01-27T20:41:20.626Z,4.93
2023-01-27T20:43:47.822Z,4.95
2023-01-27T20:46:17.443Z,5.30
2023-01-27T20:48:44.760Z,4.82
2023-01-27T20:51:14.157Z,5.38
2023-01-27T20:53:45.176Z,4.93
2023-01-27T20:56:20.533Z,5.18
2023-01-27T20:58:48.556Z,5.25
2023-01-27T21:01:21.047Z,5.20
2023-01-27T21:03:48.224Z,5.22
2023-01-27T21:06:16.020Z,5.50
2023-01-27T21:08:43.564Z,5.07
2023-01-27T21:11:12.703Z,4.85
2023-01-27T21:13:39.517Z,5.10
2023-01-27T21:16:06.788Z,5.50
2023-01-27T21:18:33.721Z,4.90
2023-01-27T21:21:02.550Z,5.40
2023-01-27T21:23:31.424Z,5.50
2023-01-27T21:26:04.383Z,5.93
2023-01-27T21:28:33.843Z,5.97
2023-01-27T21:31:11.800Z,5.93
2023-01-27T21:33:39.442Z,5.55
2023-01-27T21:36:10.490Z,5.90
2023-01-27T21:38:38.097Z,6.07
2023-01-27T21:41:14.124Z,6.22
2023-01-27T21:43:59.713Z,6.30
2023-01-27T21:46:26.489Z,5.82
2023-01-27T21:48:53.329Z,6.30
2023-01-27T21:51:20.230Z,6.32
2023-01-27T21:53:47.325Z,5.95
2023-01-27T21:56:14.241Z,5.80
2023-01-27T21:58:41.047Z,5.75
2023-01-27T22:01:09.633Z,6.00
2023-01-27T22:03:37.631Z,5.68
2023-01-27T22:06:08.632Z,6.05
2023-01-27T22:08:36.685Z,5.72
2023-01-27T22:11:07.561Z,5.22
2023-01-27T22:13:35.702Z,5.95
2023-01-27T22:16:03.686Z,5.93
2023-01-27T22:18:31.086Z,5.97
2023-01-27T22:21:01.596Z,6.30
2023-01-27T22:23:28.596Z,6.18
2023-01-27T22:25:55.603Z,6.30
2023-01-27T22:28:24.088Z,6.65
2023-01-27T22:30:51.466Z,6.30
2023-01-27T22:33:19.020Z,6.50
2023-01-27T22:35:45.924Z,6.70
2023-01-27T22:38:12.944Z,6.53
2023-01-27T22:40:40.066Z,6.35
2023-01-27T22:43:10.305Z,6.32
2023-01-27T22:45:40.671Z,6.85
2023-01-27T22:48:08.781Z,6.35
2023-01-27T22:50:36.873Z,7.15
2023-01-27T22:53:05.424Z,6.50
2023-01-27T22:55:32.966Z,6.60
2023-01-27T22:57:59.988Z,6.75
2023-01-27T23:00:26.960Z,7.15
2023-01-27T23:02:54.303Z,6.82
2023-01-27T23:05:21.275Z,6.70
2023-01-27T23:07:48.267Z,6.47
2023-01-27T23:10:15.931Z,6.55
2023-01-27T23:12:42.820Z,7.10
2023-01-27T23:15:10.431Z,6.32
2023-01-27T23:17:37.465Z,6.35
2023-01-27T23:20:05.013Z,6.15
2023-01-27T23:22:32.429Z,5.93
2023-01-27T23:24:59.450Z,6.50
2023-01-27T23:27:28.561Z,6.38
2023-01-27T23:29:55.587Z,6.65
2023-01-27T23:32:22.597Z,6.20
2023-01-27T23:34:50.381Z,6.30
2023-01-27T23:37:17.467Z,5.95
2023-01-27T23:39:48.670Z,6.10
2023-01-27T23:42:16.765Z,5.93
2023-01-27T23:44:43.794Z,6.15
2023-01-27T23:47:11.531Z,6.35
2023-01-27T23:49:38.657Z,6.00
2023-01-27T23:52:05.922Z,6.40
2023-01-27T23:54:32.960Z,5.82
2023-01-27T23:57:00.487Z,5.70
2023-01-27T23:59:27.393Z,6.28
